Home > Products > Valid Products > TAF

000
FTUS46 KSEW 231100
TAFHQM
TAF
KHQM 231123Z 2312/2412 07007KT P6SM VCSH BKN040 OVC070
      TEMPO 2312/2316 4SM -SHRA BR BKN030 OVC050
     FM231600 09009KT P6SM -SHRA BKN035 OVC060
     FM232000 10007KT 6SM -RA BR SCT017 OVC030
     FM240400 13013G20KT 5SM RA BR OVC020=



000
FTUS46 KSEW 231100
TAFCLM
TAF
KCLM 231123Z 2312/2412 22004KT P6SM VCSH BKN035 OVC070
     FM232100 VRB04KT P6SM -RA SCT020 OVC035
     FM240400 VRB03KT 6SM -RA BR OVC025
      AMD NOT SKED=



000
FTUS46 KSEW 231100
TAFSEA
TAF
KSEA 231123Z 2312/2418 12005KT P6SM -SHRA BKN050 OVC080
     FM232000 13006KT P6SM -RA OVC035
     FM240200 13008KT P6SM -RA OVC022
     FM240900 15009KT 5SM RA BR OVC018=



000
FTUS46 KSEW 231100
TAFBFI
TAF
KBFI 231123Z 2312/2412 11005KT P6SM -SHRA BKN050 OVC080
     FM232000 18007KT P6SM -RA OVC040
     FM240200 16006KT P6SM -RA OVC027
     FM240900 14006KT 6SM RA BR OVC023=



000
FTUS46 KSEW 231100
TAFPAE
TAF
KPAE 231123Z 2312/2412 17005KT P6SM -SHRA BKN050 OVC080
     FM232000 18010KT P6SM -RA OVC035
     FM240200 18012KT 6SM -RA BR OVC027
     FM240800 18012G18KT 5SM RA BR OVC020=



000
FTUS46 KSEW 231100
TAFBLI
TAF
KBLI 231123Z 2312/2412 VRB03KT P6SM VCSH SCT035 BKN080
      TEMPO 2312/2314 1SM BR
     FM231800 14006KT P6SM -SHRA BKN040 OVC070
     FM232300 17007KT P6SM -RA OVC030
     FM240600 15008KT 5SM RA BR OVC022=



000
FTUS46 KSEW 231100
TAFOLM
TAF
KOLM 231123Z 2312/2412 VRB03KT P6SM -SHRA BKN050 OVC080
     FM231800 18005KT P6SM -RA OVC040
     FM232200 18008KT P6SM -RA OVC030
     FM240700 13006KT 5SM RA BR OVC020=



000
FTUS46 KSEW 230900 AAA
TAFBFI
TAF AMD
KBFI 230901Z 2309/2406 11005KT P6SM -SHRA BKN050 OVC080
     FM232100 18007KT P6SM -RA OVC035
     FM240500 15006KT P6SM -RA OVC027=



000
FTUS46 KSEW 230900 AAA
TAFSEA
TAF AMD
KSEA 230900Z 2309/2412 12005KT P6SM -SHRA BKN045 OVC070
     FM232100 20008KT P6SM -RA OVC030
     FM240500 13007KT P6SM -RA OVC022=



000
FTUS46 KSEW 230600 AAA
TAFOLM
TAF AMD
KOLM 230619Z 2306/2406 VRB03KT P6SM VCSH SCT035 BKN070 OVC100
      TEMPO 2306/2309 1SM BR
     FM230900 VRB03KT 5SM -SHRA BR BKN035 OVC070
     FM231800 18005KT P6SM -RA OVC025
     FM240100 13006KT 5SM -RA BR OVC020=



000
FTUS46 KSEW 230500
TAFSEA
TAF
KSEA 230520Z 2306/2412 VRB05KT P6SM VCSH SCT035 BKN060 OVC100
     FM231000 12005KT P6SM -SHRA BKN035 OVC070
     FM232100 20008KT P6SM -RA OVC030
     FM240500 13007KT P6SM -RA OVC022=



000
FTUS46 KSEW 230500
TAFCLM
TAF
KCLM 230520Z 2306/2406 24004KT P6SM SCT035 BKN070 OVC120
     FM231200 09004KT P6SM -SHRA BKN035 OVC070
     FM232100 VRB04KT P6SM -RA SCT010 OVC035
      AMD NOT SKED=



000
FTUS46 KSEW 230500
TAFHQM
TAF
KHQM 230520Z 2306/2406 VRB03KT P6SM VCSH SCT025 BKN070 OVC120
     FM230800 VRB03KT P6SM -SHRA BKN027 OVC070
     FM231200 09007KT 6SM -SHRA BR BKN025 OVC050
     FM232000 14007KT P6SM -RA SCT017 OVC030
     FM240300 13013KT 5SM RA BR OVC020=



000
FTUS46 KSEW 230500
TAFBFI
TAF
KBFI 230520Z 2306/2406 VRB04KT P6SM VCSH SCT040 BKN070 OVC100
     FM231000 14005KT P6SM -SHRA BKN040 OVC070
     FM232100 18007KT P6SM -RA OVC035
     FM240500 15006KT P6SM -RA OVC027=



000
FTUS46 KSEW 230500
TAFBLI
TAF
KBLI 230520Z 2306/2406 VRB04KT P6SM SCT035 BKN060 OVC100
     FM231200 VRB03KT P6SM -SHRA BKN035 OVC070
     FM232000 14007KT P6SM -RA OVC030
     FM240400 16008KT 5SM -RA BR OVC022=



000
FTUS46 KSEW 230500
TAFOLM
TAF
KOLM 230520Z 2306/2406 VRB03KT P6SM VCSH SCT035 BKN070 OVC100
     FM230900 VRB03KT P6SM -SHRA BKN035 OVC070
     FM231800 18005KT P6SM -RA OVC025
     FM240100 13006KT 5SM -RA BR OVC020=



000
FTUS46 KSEW 230500
TAFPAE
TAF
KPAE 230520Z 2306/2406 VRB04KT P6SM VCSH SCT035 BKN070 OVC100
     FM231000 12005KT P6SM -SHRA BKN035 OVC070
     FM232100 18012KT P6SM -RA OVC027
     FM240500 18012G18KT 5SM -RA BR OVC020=



000
FTUS46 KSEW 230300 AAA
TAFSEA
TAF AMD
KSEA 230302Z 2303/2406 VRB05KT P6SM VCSH SCT035 BKN060 OVC100
     FM231200 12005KT P6SM -SHRA OVC035
     FM232100 21008KT P6SM -RA OVC030=



000
FTUS46 KSEW 222300
TAFBFI
TAF
KBFI 222320Z 2300/2324 21003KT P6SM SCT035 BKN100 OVC200
     FM230600 VRB04KT P6SM VCSH BKN035 BKN070 OVC120
     FM231200 12005KT P6SM -SHRA OVC035
     FM232100 18007KT P6SM -RA OVC030=



000
FTUS46 KSEW 222300
TAFPAE
TAF
KPAE 222320Z 2300/2324 25006KT P6SM BKN028 BKN100 OVC200
     FM230500 VRB04KT P6SM VCSH BKN035 BKN070 OVC120
     FM231200 12005KT P6SM -SHRA OVC035
     FM232100 18010G20KT P6SM -RA OVC025=



000
FTUS46 KSEW 222300
TAFBLI
TAF
KBLI 222320Z 2300/2324 VRB04KT P6SM SCT035 SCT100 OVC200
     FM231200 VRB03KT P6SM -SHRA OVC035
     FM231800 14005KT P6SM -RA OVC030
     FM232200 16008KT 4SM -RA BR OVC022=



000
FTUS46 KSEW 222300
TAFSEA
TAF
KSEA 222320Z 2300/2406 25006KT P6SM SCT035 BKN100 OVC200
     FM230600 VRB04KT P6SM VCSH BKN035 BKN070 OVC120
     FM231200 12005KT P6SM -SHRA OVC035
     FM232100 21008KT P6SM -RA OVC030=



000
FTUS46 KSEW 222300
TAFOLM
TAF
KOLM 222320Z 2300/2324 25006KT P6SM SCT025 BKN035 OVC050
     FM230300 VRB03KT P6SM -SHRA SCT035 BKN070 OVC120
     FM230900 VRB03KT P6SM VCSH OVC035
     FM231700 15007KT P6SM -RA OVC025=



000
FTUS46 KSEW 222300
TAFCLM
TAF
KCLM 222320Z 2300/2324 VRB04KT P6SM BKN030 BKN120 BKN200
     FM230300 10004KT P6SM SCT035 BKN070 OVC120
     FM231200 09004KT P6SM -SHRA OVC030
     FM231600 VRB04KT P6SM -RA SCT010 OVC035
      AMD NOT SKED=



000
FTUS46 KSEW 222300
TAFHQM
TAF
KHQM 222320Z 2300/2324 20006KT P6SM SCT015 BKN035
     FM230300 VRB03KT P6SM SCT025 BKN070 OVC120
     FM230800 VRB03KT P6SM VCSH OVC025
     FM231200 09009KT 4SM RA BR OVC015
     FM232200 16006KT P6SM -RA SCT018 OVC035=



000
FTUS46 KSEW 222100 AAA
TAFBFI
TAF AMD
KBFI 222106Z 2221/2318 22008KT P6SM BKN035 OVC200
     FM230600 VRB03KT P6SM VCSH SCT035 BKN070 OVC120
     FM231100 VRB03KT P6SM -SHRA OVC035
     FM231700 15005KT P6SM -RA OVC030=



000
FTUS46 KSEW 222100 AAA
TAFSEA
TAF AMD
KSEA 222105Z 2221/2324 21006KT P6SM BKN035 OVC200
     FM230600 VRB04KT P6SM VCSH BKN035 BKN070 OVC120
     FM231100 12005KT P6SM -SHRA OVC030
     FM231700 20007KT P6SM -RA OVC025=



000
FTUS46 KSEW 222100 AAA
TAFPAE
TAF AMD
KPAE 222101Z 2221/2318 18006KT P6SM OVC028
     FM230600 VRB03KT P6SM VCSH SCT035 BKN070 OVC120
     FM231200 VRB04KT P6SM -SHRA OVC035
     FM231600 14005KT P6SM -RA OVC025=



000
FTUS46 KSEW 221900 AAA
TAFCLM
TAF AMD
KCLM 221902Z 2219/2318 VRB04KT P6SM FEW015 BKN035
     FM230500 10004KT P6SM -SHRA SCT035 BKN070 OVC120
     FM231200 09004KT P6SM VCSH OVC035
      TEMPO 2312/2315 1SM BR SCT003 BKN035
     FM231500 12005KT P6SM -RA SCT010 OVC035
      AMD NOT SKED=



000
FTUS46 KSEW 221700
TAFPAE
TAF
KPAE 221720Z 2218/2318 16010KT P6SM VCSH FEW015 SCT025 BKN045
      TEMPO 2218/2220 -SHRA OVC025
     FM222000 20006KT P6SM SCT025 BKN035 OVC050
     FM230400 VRB03KT P6SM -SHRA SCT035 BKN070 OVC120
     FM230900 VRB04KT P6SM VCSH OVC035
     FM231600 14005KT P6SM -RA OVC025=



000
FTUS46 KSEW 221700
TAFBFI
TAF
KBFI 221720Z 2218/2318 17004KT P6SM FEW015 SCT025 BKN045
      TEMPO 2218/2220 OVC025
     FM222000 25005KT P6SM SCT025 BKN035 OVC050
     FM230400 VRB03KT P6SM -SHRA SCT035 BKN070 OVC120
     FM230900 VRB03KT P6SM VCSH OVC035
     FM231700 15005KT P6SM -RA OVC030=



000
FTUS46 KSEW 221700
TAFHQM
TAF
KHQM 221720Z 2218/2318 18008KT P6SM SCT008 SCT012 OVC025
      TEMPO 2218/2222 6SM BR OVC008
     FM222200 22006KT P6SM BKN018 OVC030
     FM230300 VRB03KT P6SM -SHRA SCT025 BKN070 OVC120
     FM230800 VRB03KT P6SM VCSH OVC025
     FM231300 09009KT 4SM RA BR OVC015=



000
FTUS46 KSEW 221700
TAFBLI
TAF
KBLI 221720Z 2218/2318 16006KT P6SM FEW015 SCT022 BKN035
      TEMPO 2218/2220 -SHRA SCT015 OVC022
     FM222000 19006KT P6SM SCT025 BKN035 OVC050
     FM230500 VRB03KT P6SM -SHRA SCT035 BKN070 OVC120
     FM231500 16004KT P6SM -RA OVC025=



000
FTUS46 KSEW 221700
TAFCLM
TAF
KCLM 221720Z 2218/2318 VRB04KT P6SM FEW015 SCT025 BKN045
      TEMPO 2218/2220 OVC015
     FM222000 VRB04KT P6SM SCT025 BKN035 OVC050
     FM230500 10004KT P6SM -SHRA SCT035 BKN070 OVC120
     FM231200 09004KT P6SM VCSH OVC035
      TEMPO 2312/2315 1SM BR SCT003 BKN035
     FM231500 12005KT P6SM -RA SCT010 OVC035
      AMD NOT SKED=



000
FTUS46 KSEW 221700
TAFSEA
TAF
KSEA 221720Z 2218/2324 19006KT P6SM FEW015 SCT025 BKN045
      TEMPO 2218/2220 OVC025
     FM222000 22006KT P6SM SCT025 BKN035 OVC050
     FM230400 VRB04KT P6SM -SHRA SCT035 BKN070 OVC120
     FM230900 VRB04KT P6SM VCSH OVC035
     FM231200 12005KT P6SM VCSH OVC030
     FM231700 20007KT P6SM -RA OVC025=



000
FTUS46 KSEW 221700
TAFOLM
TAF
KOLM 221720Z 2218/2318 19006KT P6SM FEW010 SCT025 BKN035
      TEMPO 2218/2220 SCT010 OVC025
     FM222000 22006KT P6SM SCT025 BKN035 OVC050
     FM230300 VRB03KT P6SM -SHRA SCT035 BKN070 OVC120
     FM230900 VRB03KT P6SM VCSH OVC035
     FM231700 15007KT P6SM -RA OVC025=



000
FTUS46 KSEW 221600 AAB
TAFHQM
TAF AMD
KHQM 221600Z 2216/2312 15008KT P6SM SCT008 SCT012 OVC025
      TEMPO 2216/2217 2SM BR OVC008
     FM221900 17008KT P6SM BKN035 OVC100
     FM230400 13008KT P6SM -SHRA BKN022 OVC035=



000
FTUS46 KSEW 221400 AAA
TAFBLI
TAF AMD
KBLI 221457Z 2215/2312 18008KT P6SM VCTS BKN022 OVC040CB
      TEMPO 2215/2217 4SM -SHRA BR OVC022
     FM221800 18008KT P6SM SCT030 BKN100
     FM231100 VRB03KT P6SM SCT040 BKN070 OVC120=



000
FTUS46 KSEW 221400 AAA
TAFHQM
TAF AMD
KHQM 221454Z 2215/2312 17008KT P6SM SCT018 OVC030
      TEMPO 2215/2217 4SM BR
     FM221700 17008KT P6SM BKN035 OVC100
     FM230400 13008KT P6SM -SHRA BKN022 OVC035=



000
FTUS46 KSEW 221400 AAA
TAFPAE
TAF AMD
KPAE 221419Z 2214/2312 16008KT P6SM VCTS BKN022 BKN045CB
      TEMPO 2214/2216 -SHRA OVC022
     FM221600 17008KT P6SM SCT016 OVC025
     FM221900 20006KT P6SM SCT025 OVC035
     FM222100 20006KT P6SM SCT035 BKN100
     FM231100 13008KT P6SM SCT035 BKN070 OVC120=



000
FTUS46 KSEW 221400 AAA
TAFCLM
TAF AMD
KCLM 221417Z 2214/2312 28006KT P6SM VCTS BKN014 BKN050CB
      TEMPO 2214/2216 5SM -DZ BR OVC014
     FM221600 VRB03KT P6SM BKN025 BKN050
     FM221900 VRB03KT P6SM SCT025 BKN035 BKN100
     FM222100 VRB03KT P6SM SCT040 BKN100
     FM231000 VRB03KT P6SM SCT040 BKN070 OVC120
      AMD NOT SKED=



000
FTUS46 KSEW 221400 AAA
TAFBFI
TAF AMD
KBFI 221414Z 2214/2312 16008KT P6SM VCTS BKN018 BKN050CB
      TEMPO 2214/2216 6SM -DZ OVC018
     FM221600 16008KT P6SM BKN025 BKN050
     FM221900 16006KT P6SM SCT030 OVC040
     FM222100 23006KT P6SM SCT040 BKN100
     FM231100 14006KT P6SM SCT040 BKN070 OVC120=



000
FTUS46 KSEW 221400 AAA
TAFSEA
TAF AMD
KSEA 221412Z 2214/2318 19006KT P6SM VCTS BKN013 BKN045CB
      TEMPO 2214/2216 5SM -DZ BR OVC013
     FM221600 19006KT P6SM SCT022 BKN045
      TEMPO 2216/2218 BKN022 BKN045
     FM221900 22006KT P6SM SCT025 OVC035
     FM222100 24006KT P6SM SCT035 BKN100
     FM231100 15006KT P6SM SCT035 BKN070 OVC120=



000
FTUS46 KSEW 221100
TAFSEA
TAF
KSEA 221139Z 2212/2318 19006KT P6SM OVC018
     FM221500 19006KT P6SM SCT015 OVC022
     FM221900 22006KT P6SM SCT025 OVC035
     FM222100 24006KT P6SM SCT035 BKN100
     FM231100 15006KT P6SM SCT035 BKN070 OVC120=



000
FTUS46 KSEW 221100
TAFCLM
TAF
KCLM 221139Z 2212/2312 28006KT P6SM OVC014
     FM221700 VRB03KT P6SM SCT014 OVC022
     FM221900 VRB03KT P6SM SCT025 BKN035 BKN100
     FM222100 VRB03KT P6SM SCT040 BKN100
     FM231000 VRB03KT P6SM SCT040 BKN070 OVC120
      AMD NOT SKED=



000
FTUS46 KSEW 221100
TAFOLM
TAF
KOLM 221139Z 2212/2312 20006KT P6SM OVC022
     FM222000 22006KT P6SM BKN035 BKN100
     FM222200 22006KT P6SM SCT040 BKN100
     FM231100 17006KT P6SM SCT040 BKN070 OVC120=



000
FTUS46 KSEW 221100
TAFBFI
TAF
KBFI 221139Z 2212/2312 16006KT P6SM OVC022
     FM221900 16006KT P6SM SCT030 OVC040
     FM222100 23006KT P6SM SCT040 BKN100
     FM231100 14006KT P6SM SCT040 BKN070 OVC120=



000
FTUS46 KSEW 221100
TAFHQM
TAF
KHQM 221139Z 2212/2312 18008KT P6SM OVC030
     FM221600 18008KT P6SM BKN035 OVC100
     FM230400 13008KT P6SM -SHRA BKN022 OVC035=



000
FTUS46 KSEW 221100
TAFPAE
TAF
KPAE 221139Z 2212/2312 17008KT P6SM OVC016
     FM221600 17008KT P6SM SCT016 OVC025
     FM221900 20006KT P6SM SCT025 OVC035
     FM222100 20006KT P6SM SCT035 BKN100
     FM231100 13008KT P6SM SCT035 BKN070 OVC120=



000
FTUS46 KSEW 221100
TAFBLI
TAF
KBLI 221139Z 2212/2312 18008KT P6SM OVC021
     FM221800 18008KT P6SM SCT030 BKN100
     FM231100 VRB03KT P6SM SCT040 BKN070 OVC120=



000
FTUS46 KSEW 221000 AAA
TAFBLI
TAF AMD
KBLI 221002Z 2210/2306 18010KT P6SM OVC021
     FM221800 18008KT P6SM SCT030 BKN100=



000
FTUS46 KSEW 220900 AAA
TAFSEA
TAF AMD
KSEA 220915Z 2209/2312 19006KT P6SM OVC012
     FM221700 21006KT P6SM SCT015 OVC022
     FM221900 24006KT P6SM SCT025 OVC035
     FM222100 24006KT P6SM SCT035 BKN100
     FM231100 15006KT P6SM SCT035 BKN070 OVC120=



000
FTUS46 KSEW 220500
TAFBLI
TAF
KBLI 220537Z 2206/2306 18010KT P6SM SCT150
     FM221200 18008KT P6SM OVC015
     FM221800 18008KT P6SM SCT030 BKN100=



000
FTUS46 KSEW 220500
TAFOLM
TAF
KOLM 220537Z 2206/2306 19006KT P6SM SCT150
     FM220700 20006KT P6SM OVC012
     FM221800 20006KT P6SM OVC022
     FM222000 22006KT P6SM BKN035 BKN100
     FM222200 22006KT P6SM SCT040 BKN100=



000
FTUS46 KSEW 220500
TAFPAE
TAF
KPAE 220537Z 2206/2306 VRB03KT P6SM SCT150
     FM220900 17006KT P6SM OVC011
     FM221700 17006KT P6SM SCT012 OVC022
     FM221900 20006KT P6SM SCT025 OVC035
     FM222100 20006KT P6SM SCT035 BKN100=



000
FTUS46 KSEW 220500
TAFCLM
TAF
KCLM 220537Z 2206/2306 28010KT P6SM SCT150
     FM220800 28010KT P6SM OVC008
     FM221300 28006KT P6SM OVC012
     FM221700 VRB03KT P6SM SCT012 OVC022
     FM221900 VRB03KT P6SM SCT025 BKN035 BKN100
     FM222100 VRB03KT P6SM SCT040 BKN100
      AMD NOT SKED=



000
FTUS46 KSEW 220500
TAFBFI
TAF
KBFI 220537Z 2206/2306 18008KT P6SM SCT150
     FM220800 18008KT P6SM OVC016
     FM221700 18008KT P6SM SCT018 OVC026
     FM221900 18008KT P6SM SCT030 OVC040
     FM222100 20006KT P6SM SCT040 BKN100=



000
FTUS46 KSEW 220500
TAFSEA
TAF
KSEA 220537Z 2206/2312 21010KT P6SM SCT150
     FM220800 21010KT P6SM OVC012
     FM221700 21006KT P6SM SCT015 OVC022
     FM221900 24006KT P6SM SCT025 OVC035
     FM222100 24006KT P6SM SCT035 BKN100
     FM231100 15006KT P6SM SCT035 BKN070 OVC120=



000
FTUS46 KSEW 220500
TAFHQM
TAF
KHQM 220537Z 2206/2306 18008KT P6SM SCT015 BKN025 OVC035
     FM220900 18008KT P6SM OVC015
     FM221900 18008KT P6SM BKN022 OVC035
     FM222200 18008KT P6SM SCT022 BKN035 OVC100
     FM230400 15006KT P6SM -SHRA BKN022 OVC035=



000
FTUS46 KSEW 220300 AAA
TAFSEA
TAF AMD
KSEA 220308Z 2203/2306 20010KT P6SM FEW200
     FM220800 20005KT 6SM BR OVC009
     FM221700 20005KT P6SM OVC015
     FM221900 24006KT P6SM SCT020 OVC035
     FM222100 23007KT P6SM SCT035 BKN100=



000
FTUS46 KSEW 220100 AAA
TAFHQM
TAF AMD
KHQM 220129Z 2201/2224 VRB05KT 2SM BR OVC010
     FM221900 17007KT P6SM BKN020 OVC035=



000
FTUS46 KSEW 220000 AAA
TAFCLM
TAF AMD
KCLM 220049Z 2201/2224 29013KT P6SM SKC
      TEMPO 2201/2204 29013G23KT
     FM220400 28009KT P6SM FEW100
     FM220800 26004KT 5SM BR OVC007
     FM221900 VRB03KT P6SM SCT025 BKN035 BKN100=



000
FTUS46 KSEW 212300
TAFBFI
TAF
KBFI 212320Z 2200/2224 18007KT P6SM SKC
     FM220800 19003KT P6SM OVC013
     FM221900 18006KT P6SM SCT025 OVC040
     FM222100 22005KT P6SM SCT040 BKN100=



000
FTUS46 KSEW 212300
TAFCLM
TAF
KCLM 212320Z 2200/2224 30009KT P6SM SKC
     FM220200 27009KT P6SM FEW100
     FM220800 26004KT 5SM BR OVC007
     FM221900 VRB03KT P6SM SCT025 BKN035 BKN100=



000
FTUS46 KSEW 212300
TAFPAE
TAF
KPAE 212320Z 2200/2224 27007KT P6SM SKC
     FM220400 17006KT P6SM SCT100
     FM220900 17006KT 5SM BR OVC007
     FM221900 18007KT P6SM SCT018 OVC030
     FM222100 20006KT P6SM SCT030 BKN100=



000
FTUS46 KSEW 212300
TAFHQM
TAF
KHQM 212320Z 2200/2224 22005KT P6SM OVC019
     FM220200 17005KT P6SM OVC015
     FM220600 12005KT 5SM BR OVC009
     FM221900 17007KT P6SM BKN020 OVC035=



000
FTUS46 KSEW 212300
TAFOLM
TAF
KOLM 212320Z 2200/2224 34006KT P6SM SKC
     FM220300 20003KT P6SM SCT100
     FM220700 20003KT 6SM BR OVC010
     FM221100 20003KT 3SM BR OVC006
     FM221700 22004KT P6SM BKN012 OVC035
     FM222000 22006KT P6SM BKN035 BKN100=



000
FTUS46 KSEW 212300
TAFSEA
TAF
KSEA 212320Z 2200/2306 20010KT P6SM FEW200
     FM220800 20005KT 6SM BR OVC009
     FM221900 24006KT P6SM SCT020 OVC035
     FM222100 23007KT P6SM SCT035 BKN100=



000
FTUS46 KSEW 212300
TAFBLI
TAF
KBLI 212320Z 2200/2224 21007KT P6SM SKC
     FM220300 15004KT P6SM FEW100
     FM221100 18008KT P6SM OVC010
     FM221900 19005KT P6SM SCT025 OVC035=



000
FTUS46 KSEW 212100 AAA
TAFSEA
TAF AMD
KSEA 212100Z 2121/2224 20010KT P6SM SKC
     FM220800 20005KT 6SM BR OVC009
     FM221900 24006KT P6SM SCT020 BKN035=



000
FTUS46 KSEW 211900 AAA
TAFHQM
TAF AMD
KHQM 211920Z 2119/2218 17007KT P6SM OVC012
     FM212300 20008KT P6SM BKN015
     FM220200 17005KT P6SM OVC015
     FM220600 17005KT 5SM BR OVC009=



000
FTUS46 KSEW 211700
TAFBLI
TAF
KBLI 211730Z 2118/2218 00000KT P6SM SKC
     FM212000 20006KT P6SM SKC
     FM220300 15004KT P6SM FEW100
     FM221100 17007KT P6SM OVC010=



000
FTUS46 KSEW 211700
TAFSEA
TAF
KSEA 211730Z 2118/2224 17004KT P6SM FEW090
     FM212000 22006KT P6SM SCT150
     FM220800 20005KT 6SM BR OVC009
     FM221900 24006KT P6SM SCT020 BKN035=



000
FTUS46 KSEW 211700
TAFBFI
TAF
KBFI 211730Z 2118/2218 12004KT P6SM FEW090
     FM212000 20005KT P6SM SCT150
     FM220800 19003KT P6SM OVC013=



000
FTUS46 KSEW 211700
TAFCLM
TAF
KCLM 211730Z 2118/2218 27003KT P6SM SKC
     FM212000 34005KT P6SM SKC
     FM220200 27006KT P6SM FEW100
     FM220800 26004KT 5SM BR OVC007=



000
FTUS46 KSEW 211700
TAFPAE
TAF
KPAE 211730Z 2118/2218 25003KT P6SM FEW100
     FM212000 22009KT P6SM SCT150
     FM220400 17006KT P6SM SCT100
     FM220900 17006KT 5SM BR OVC007=



000
FTUS46 KSEW 211700
TAFOLM
TAF
KOLM 211730Z 2118/2218 00000KT P6SM SKC
     FM212000 24006KT P6SM SCT100
     FM220300 20003KT P6SM SCT100
     FM220700 20003KT 6SM BR OVC010
     FM221100 20003KT 3SM BR OVC006=



000
FTUS46 KSEW 211700
TAFHQM
TAF
KHQM 211730Z 2118/2218 17007KT P6SM OVC008
     FM212100 20008KT P6SM OVC010
     FM212300 20008KT P6SM BKN020
     FM220200 17005KT P6SM OVC015
     FM220600 17005KT 5SM BR OVC009=



000
FTUS46 KSEW 211500 AAA
TAFSEA
TAF AMD
KSEA 211501Z 2115/2218 17003KT P6SM FEW170
     FM212000 24006KT P6SM SCT150
     FM220400 22005KT P6SM SCT100
     FM221100 19005KT P6SM BKN010
     FM221400 20005KT 3SM BR OVC007=



000
FTUS46 KSEW 211400 AAA
TAFHQM
TAF AMD
KHQM 211412Z 2114/2212 15005KT P6SM OVC006
     FM211900 20008KT P6SM OVC010
     FM212200 20008KT P6SM BKN020
     FM220200 17005KT P6SM OVC015
     FM220500 17005KT 4SM BR OVC007=



000
FTUS46 KSEW 211400 AAA
TAFBLI
TAF AMD
KBLI 211412Z 2114/2212 00000KT P6SM SKC
     FM211600 VRB03KT P6SM SKC
     FM212000 20006KT P6SM SKC
     FM220300 15004KT P6SM FEW100=



000
FTUS46 KSEW 211100
TAFBLI
TAF
KBLI 211120Z 2112/2212 00000KT 3SM BR SCT001
      TEMPO 2112/2115 1/2SM FG VV001
     FM211600 VRB03KT P6SM SKC
     FM212000 20006KT P6SM SKC
     FM220300 15004KT P6SM FEW100=



000
FTUS46 KSEW 211100
TAFSEA
TAF
KSEA 211120Z 2112/2218 00000KT P6SM SKC
     FM211800 24006KT P6SM SKC
     FM220400 22005KT P6SM SCT100
     FM221100 19005KT P6SM BKN010
     FM221400 20005KT 3SM BR OVC007=



000
FTUS46 KSEW 211100
TAFPAE
TAF
KPAE 211120Z 2112/2212 VRB03KT P6SM SKC
     FM211700 20006KT P6SM SKC
     FM220400 17006KT P6SM SCT100=



000
FTUS46 KSEW 211100
TAFOLM
TAF
KOLM 211120Z 2112/2212 00000KT P6SM FEW002
      TEMPO 2112/2116 3/4SM BR BKN001
     FM211700 22006KT P6SM SKC=



000
FTUS46 KSEW 211100
TAFBFI
TAF
KBFI 211120Z 2112/2212 00000KT P6SM SKC
     FM211800 23005KT P6SM SKC
     FM220400 19003KT P6SM SCT100
     FM221100 16004KT P6SM BKN013=



000
FTUS46 KSEW 211100
TAFCLM
TAF
KCLM 211120Z 2112/2212 00000KT P6SM SKC
     FM212000 34005KT P6SM SKC
     FM220200 27005KT P6SM FEW100
     FM220800 26004KT P6SM OVC010=



000
FTUS46 KSEW 211100
TAFHQM
TAF
KHQM 211120Z 2112/2212 20006KT P6SM SKC
      TEMPO 2112/2113 2SM BR BKN003
     FM211300 18008KT 3SM BR OVC004
     FM211900 20008KT P6SM OVC010
     FM212200 20008KT P6SM BKN020
     FM220200 17005KT P6SM OVC015
     FM220500 17005KT 4SM BR OVC007=



000
FTUS46 KSEW 211000 AAA
TAFHQM
TAF AMD
KHQM 211002Z 2110/2206 00000KT P6SM SKC
     FM211200 18008KT 2SM BR OVC003
     FM211900 20008KT P6SM OVC010
     FM212200 20008KT P6SM BKN020
     FM220200 17005KT P6SM OVC015=



000
FTUS46 KSEW 211000 AAA
TAFOLM
TAF AMD
KOLM 211002Z 2110/2206 00000KT 2SM BR SCT001
      TEMPO 2110/2114 1/2SM FG BKN001
     FM211600 22006KT P6SM SKC=



000
FTUS46 KSEW 210900 AAA
TAFSEA
TAF AMD
KSEA 210900Z 2109/2212 36004KT P6SM SKC
     FM211200 VRB03KT P6SM SKC
     FM211800 24006KT P6SM SKC
     FM220400 22005KT P6SM SCT100
     FM221100 19005KT P6SM BKN015=



000
FTUS46 KSEW 210800 AAA
TAFBLI
TAF AMD
KBLI 210845Z 2109/2206 00000KT 3/4SM BR VV001
      TEMPO 2109/2113 3SM BR SCT001
     FM211500 VRB03KT P6SM SKC
     FM212000 20006KT P6SM SKC
     FM220300 15004KT P6SM FEW100=



000
FTUS46 KSEW 210500
TAFOLM
TAF
KOLM 210520Z 2106/2206 VRB03KT P6SM SKC
     FM211200 00000KT 3SM MIFG SKC
     FM211600 22006KT P6SM SKC=



000
FTUS46 KSEW 210500
TAFHQM
TAF
KHQM 210520Z 2106/2206 07008KT P6SM SKC
     FM211000 18008KT 2SM BR OVC003
     FM211900 20008KT P6SM OVC010
     FM212200 20008KT P6SM BKN020
     FM220200 17005KT P6SM OVC015=



000
FTUS46 KSEW 210500
TAFBFI
TAF
KBFI 210520Z 2106/2206 00000KT P6SM SKC
     FM211800 23005KT P6SM SKC
     FM220400 19003KT P6SM SCT100=



000
FTUS46 KSEW 210500
TAFPAE
TAF
KPAE 210520Z 2106/2206 03004KT P6SM SKC
     FM211000 VRB03KT P6SM SKC
     FM211700 20006KT P6SM SKC
     FM220400 17006KT P6SM SCT100=



000
FTUS46 KSEW 210500
TAFCLM
TAF
KCLM 210520Z 2106/2206 VRB03KT P6SM SKC
     FM212000 34005KT P6SM SKC
     FM220200 27005KT P6SM FEW100=



000
FTUS46 KSEW 210500
TAFBLI
TAF
KBLI 210520Z 2106/2206 00000KT P6SM SKC
     FM212000 20006KT P6SM SKC
     FM220300 15004KT P6SM FEW100=



000
FTUS46 KSEW 210500
TAFSEA
TAF
KSEA 210520Z 2106/2212 36008KT P6SM SKC
     FM210800 03005KT P6SM SKC
     FM211200 VRB03KT P6SM SKC
     FM211800 24006KT P6SM SKC
     FM220400 22005KT P6SM SCT100
     FM221100 19005KT P6SM BKN015=



000
FTUS46 KSEW 210300 AAA
TAFSEA
TAF AMD
KSEA 210300Z 2103/2206 35006KT P6SM FEW250
     FM210800 03005KT P6SM SKC
     FM211500 24005KT P6SM SKC
     FM212200 24008KT P6SM SKC
     FM220200 24008KT P6SM BKN100=



000
FTUS46 KSEW 202300
TAFBFI
TAF
KBFI 202320Z 2100/2124 31008G14KT P6SM SKC
     FM210300 VRB03KT P6SM SKC
     FM211600 20005KT P6SM SKC
     FM212000 28005KT P6SM SKC=



000
FTUS46 KSEW 202300
TAFBLI
TAF
KBLI 202320Z 2100/2124 28006KT P6SM SKC
     FM210200 03004KT P6SM SKC
     FM212000 19008KT P6SM SKC=



000
FTUS46 KSEW 202300
TAFHQM
TAF
KHQM 202320Z 2100/2124 05013KT P6SM SKC
     FM210400 10004KT P6SM SKC
     FM211200 18008KT 2SM BR OVC003
     FM211900 20008KT P6SM BKN010=



000
FTUS46 KSEW 202300
TAFSEA
TAF
KSEA 202320Z 2100/2206 34010KT P6SM SKC
     FM210300 02008KT P6SM SKC
     FM210800 08007KT P6SM SKC
     FM211500 24005KT P6SM SKC
     FM212200 24008KT P6SM SKC
     FM220200 24008KT P6SM BKN100=



000
FTUS46 KSEW 202300
TAFCLM
TAF
KCLM 202320Z 2100/2124 09009KT P6SM SKC
     FM210200 VRB03KT P6SM SKC
     FM212000 30007KT P6SM SKC=



000
FTUS46 KSEW 202300
TAFOLM
TAF
KOLM 202320Z 2100/2124 06009KT P6SM SKC
     FM210300 00000KT P6SM SKC
     FM211200 00000KT 3SM MIFG SKC
     FM211600 24006KT P6SM SKC=



000
FTUS46 KSEW 202300
TAFPAE
TAF
KPAE 202320Z 2100/2124 36008KT P6SM SKC
     FM210400 03005KT P6SM SKC
     FM211600 18008KT P6SM SKC
     FM212100 24007KT P6SM SKC=



000
FTUS46 KSEW 202100 AAB
TAFHQM
TAF AMD
KHQM 202108Z 2021/2118 08012KT P6SM SKC
     FM210400 10004KT P6SM SKC
     FM211200 15006KT 2SM BR OVC003=



000
FTUS46 KSEW 202100 AAA
TAFSEA
TAF AMD
KSEA 202107Z 2021/2124 36011G16KT P6SM SKC
     FM210300 02008KT P6SM SKC
     FM210800 08008KT P6SM SKC
     FM211500 24005KT P6SM SKC
     FM212200 24008KT P6SM SKC=



000
FTUS46 KSEW 201900 AAA
TAFHQM
TAF AMD
KHQM 201921Z 2019/2118 04013KT P6SM SKC
     FM210400 10004KT P6SM SKC
     FM211200 15006KT 2SM BR OVC003=



000
FTUS46 KSEW 201700
TAFSEA
TAF
KSEA 201720Z 2018/2124 36013KT 6SM BR OVC003
     FM201900 35012KT P6SM SKC
     FM210300 02008KT P6SM SKC
     FM210800 08008KT P6SM SKC
     FM211500 24005KT P6SM SKC
     FM212200 24008KT P6SM SKC=



000
FTUS46 KSEW 201700
TAFCLM
TAF
KCLM 201720Z 2018/2118 08006KT P6SM SCT005
      TEMPO 2018/2019 BKN005
     FM201900 08006KT P6SM SKC
     FM210200 VRB03KT P6SM SKC=



000
FTUS46 KSEW 201700
TAFOLM
TAF
KOLM 201720Z 2018/2118 04010KT 5SM BR OVC005
     FM201900 04010KT P6SM SCT005
     FM202000 03010KT P6SM SKC
     FM210300 00000KT P6SM SKC=



000
FTUS46 KSEW 201700
TAFPAE
TAF
KPAE 201720Z 2018/2118 01006KT 3/4SM BR VV001
     FM201900 35008KT P6SM SKC
     FM210400 03005KT P6SM SKC
     FM211600 18008KT P6SM SKC=



000
FTUS46 KSEW 201700
TAFBLI
TAF
KBLI 201720Z 2018/2118 36007KT P6SM SKC
     FM202000 31006KT P6SM SKC
     FM210200 03004KT P6SM SKC=



000
FTUS46 KSEW 201700
TAFHQM
TAF
KHQM 201720Z 2018/2118 05011KT P6SM SKC
     FM201900 07012KT P6SM SKC
     FM210400 10004KT P6SM SKC
     FM211200 15006KT 2SM BR OVC003=



000
FTUS46 KSEW 201700
TAFBFI
TAF
KBFI 201720Z 2018/2118 VRB03KT P6SM OVC008
     FM201900 34005KT P6SM SKC
     FM202100 34009KT P6SM SKC
     FM210400 VRB03KT P6SM SKC
     FM211600 20005KT P6SM SKC=



000
FTUS46 KSEW 201700 AAC
TAFSEA
TAF AMD
KSEA 201702Z 2017/2118 36013KT 6SM BR OVC003
     FM201830 35012KT P6SM SKC
     FM210300 02008KT P6SM SKC=



000
FTUS46 KSEW 201700 AAC
TAFOLM
TAF AMD
KOLM 201702Z 2017/2112 04010KT 5SM BR OVC005
     FM201900 03008KT P6SM SKC
     FM210300 00000KT P6SM SKC=



000
FTUS46 KSEW 201700 AAB
TAFBFI
TAF AMD
KBFI 201701Z 2017/2112 VRB03KT P6SM OVC008
     FM201900 34005KT P6SM SKC
     FM202000 34009KT P6SM SKC
     FM210400 VRB03KT P6SM SKC=



000
FTUS46 KSEW 201600 AAC
TAFPAE
TAF AMD
KPAE 201623Z 2016/2112 36006KT 1/4SM FG VV001
     FM201800 35008KT 2SM BR BKN003
     FM201900 35008KT P6SM SKC
     FM210400 03005KT P6SM SKC=



000
FTUS46 KSEW 201500 AAB
TAFSEA
TAF AMD
KSEA 201543Z 2016/2118 02009KT 3SM BR OVC001
     FM201830 35012KT P6SM SKC
     FM210300 02008KT P6SM SKC=



000
FTUS46 KSEW 201500 AAB
TAFOLM
TAF AMD
KOLM 201542Z 2016/2112 03006KT P6SM OVC010
     FM201800 03008KT P6SM SKC
     FM210300 00000KT P6SM SKC=



000
FTUS46 KSEW 201500 AAB
TAFHQM
TAF AMD
KHQM 201542Z 2016/2112 08005KT P6SM SKC
     FM201900 07010KT P6SM SKC=



000
FTUS46 KSEW 201400 AAA
TAFHQM
TAF AMD
KHQM 201442Z 2015/2112 08005KT 4SM BR FEW001
     FM201630 06005KT P6SM SKC
     FM201900 07010KT P6SM SKC=



000
FTUS46 KSEW 201400 AAB
TAFPAE
TAF AMD
KPAE 201441Z 2015/2112 VRB05KT 1/4SM FG VV001
      TEMPO 2016/2017 2SM BR BKN002
     FM201700 35008KT P6SM SKC
     FM210400 03005KT P6SM SKC=



000
FTUS46 KSEW 201400 AAA
TAFOLM
TAF AMD
KOLM 201441Z 2015/2112 02004KT P6SM SKC
     FM201800 03008KT P6SM SKC
     FM210300 00000KT P6SM SKC=



000
FTUS46 KSEW 201400 AAA
TAFSEA
TAF AMD
KSEA 201440Z 2015/2118 01010KT 5SM BR OVC003
     FM201700 35012KT P6SM SKC
     FM210300 02008KT P6SM SKC=



000
FTUS46 KSEW 201400 AAA
TAFBFI
TAF AMD
KBFI 201440Z 2015/2112 31004KT P6SM BKN008
     FM201700 32010KT P6SM SKC
     FM210400 VRB03KT P6SM SKC=



000
FTUS46 KSEW 201400 AAA
TAFBLI
TAF AMD
KBLI 201439Z 2015/2112 34005KT P6SM SCT002
     FM201700 02005KT P6SM SKC
     FM202000 31006KT P6SM SKC
     FM210200 00000KT P6SM SKC=



000
FTUS46 KSEW 201300 AAA
TAFPAE
TAF AMD
KPAE 201314Z 2013/2112 36005KT 1/4SM FG VV001
      TEMPO 2016/2017 2SM BR BKN002
     FM201700 35008KT P6SM SKC
     FM210400 03005KT P6SM SKC=



    US Dept of Commerce
    National Oceanic and Atmospheric Administration
    National Weather Service
    1325 East West Highway
    Silver Spring, MD 20910
    Page Author: NWS Internet Services Team
Disclaimer
Information Quality
Credits
Glossary
Privacy Policy
Freedom of Information Act (FOIA)
About Us
Career Opportunities